KAXX

Angel Fire Airport

Angel Fire, New Mexico, USA
METAR KAXX 251535Z AUTO 00000KT 10SM CLR 14/03 A3031 RMK AO2 T01370029
Observed Flight Rules
Sep-25 @ 15:35 UTC (17 minutes ago) Visual Flight Rules
Visibility Clouds
10 miles
  • Clear skies
Temperatures Readings
Current 14°C / 57°F
Dewpoint 3°C / 37°F
Humidity 48%
Altimeter 30.31" Hg
Pressure 1026 hPa
Elevation 2548
METAR KAXX 251535Z AUTO 00000KT 10SM CLR 14/03 A3031 RMK AO2 T01370029
Observed Flight Rules
Sep-25 @ 15:35 UTC
(17 minutes ago)
VFR
Clouds
  • Clear skies
Temperature Dewpoint
14°C / 57°F 3°C / 37°F
Humidity Altimeter Pressure
48% 30.31" Hg 1026 hPa